TimeEST,TemperatureF,Dew PointF,Humidity,Sea Level PressureIn,VisibilityMPH,Wind Direction,Wind SpeedMPH,Gust SpeedMPH,PrecipitationIn,Events,Conditions,WindDirDegrees,DateUTC
12:53 AM,55.0,45.0,69,30.28,10.0,NNE,17.3,23.0,N/A,,Overcast,30,2012-11-19 05:53:00
1:53 AM,54.0,45.0,72,30.27,10.0,North,6.9,-,N/A,,Overcast,10,2012-11-19 06:53:00
2:53 AM,53.1,45.0,74,30.27,10.0,North,10.4,20.7,N/A,,Overcast,10,2012-11-19 07:53:00
3:53 AM,53.1,45.0,74,30.26,10.0,North,11.5,-,N/A,,Overcast,350,2012-11-19 08:53:00
4:53 AM,53.1,44.1,71,30.26,10.0,North,10.4,-,N/A,,Overcast,10,2012-11-19 09:53:00
5:53 AM,53.1,44.1,71,30.27,10.0,North,9.2,-,N/A,,Overcast,360,2012-11-19 10:53:00
6:53 AM,51.1,45.0,80,30.27,5.0,North,10.4,-,0.00,Rain,Light Rain,10,2012-11-19 11:53:00
7:53 AM,52.0,46.0,80,30.27,10.0,North,9.2,-,0.00,,Overcast,360,2012-11-19 12:53:00
8:53 AM,55.0,45.0,69,30.27,10.0,NNE,11.5,18.4,0.00,,Overcast,30,2012-11-19 13:53:00
9:04 AM,55.4,44.6,67,30.28,10.0,NNE,15.0,-,N/A,,Overcast,30,2012-11-19 14:04:00
9:53 AM,57.9,45.0,62,30.27,10.0,North,10.4,-,N/A,,Overcast,10,2012-11-19 14:53:00
10:53 AM,61.0,46.0,58,30.26,10.0,North,6.9,-,N/A,,Mostly Cloudy,10,2012-11-19 15:53:00
11:53 AM,64.0,46.9,54,30.24,10.0,NE,10.4,-,N/A,,Overcast,40,2012-11-19 16:53:00
12:53 PM,66.9,48.0,51,30.20,10.0,NE,10.4,-,N/A,,Mostly Cloudy,50,2012-11-19 17:53:00
1:53 PM,66.9,48.0,51,30.18,10.0,North,10.4,-,N/A,,Mostly Cloudy,10,2012-11-19 18:53:00
2:53 PM,69.1,48.0,47,30.17,10.0,North,9.2,-,N/A,,Clear,10,2012-11-19 19:53:00
3:53 PM,68.0,48.0,49,30.17,10.0,NNE,9.2,-,N/A,,Clear,30,2012-11-19 20:53:00
4:53 PM,64.0,48.0,56,30.17,10.0,North,8.1,-,N/A,,Clear,10,2012-11-19 21:53:00
5:53 PM,61.0,48.0,62,30.18,10.0,North,6.9,-,N/A,,Clear,360,2012-11-19 22:53:00
6:53 PM,59.0,48.9,69,30.18,10.0,North,5.8,-,N/A,,Clear,10,2012-11-19 23:53:00
7:53 PM,55.0,48.0,77,30.19,10.0,North,4.6,-,N/A,,Clear,360,2012-11-20 00:53:00
8:53 PM,52.0,46.9,83,30.18,10.0,Calm,Calm,-,N/A,,Clear,0,2012-11-20 01:53:00
9:53 PM,51.1,46.9,86,30.18,10.0,NNW,3.5,-,N/A,,Clear,340,2012-11-20 02:53:00
10:53 PM,48.0,45.0,89,30.17,10.0,NNW,5.8,-,N/A,,Clear,340,2012-11-20 03:53:00
11:53 PM,46.9,45.0,93,30.18,10.0,Calm,Calm,-,N/A,,Clear,0,2012-11-20 04:53:00